Time;durP1;ratioP1;P1;durP2;ratioP2;P2;SDS_P1;SDS_P2;PMS_P1;PMS_P2;Temp;Humidity;BMP_temperature;BMP_pressure;BME280_temperature;BME280_humidity;BME280_pressure;Samples;Min_cycle;Max_cycle;Signal;HPM_P1;HPM_P2
2021/05/10 00:00:17;;;;;;;8.50;1.80;;;;;;;14.92;68.47;99784.78;5035270;28;20041;-72
2021/05/10 00:02:46;;;;;;;7.77;1.33;;;;;;;14.65;68.45;99740.94;5038644;28;20498;-72
2021/05/10 00:05:13;;;;;;;8.67;2.50;;;;;;;15.00;68.32;99790.75;5037771;28;20046;-69
2021/05/10 00:07:40;;;;;;;11.43;2.07;;;;;;;14.99;68.59;99775.06;5038300;28;20212;-71
2021/05/10 00:10:08;;;;;;;17.77;1.83;;;;;;;14.99;68.66;99775.88;5031302;28;20413;-72
2021/05/10 00:12:34;;;;;;;15.83;2.20;;;;;;;15.01;68.46;99772.72;5041646;28;20076;-71
2021/05/10 00:15:00;;;;;;;7.63;1.60;;;;;;;15.01;68.54;99772.72;5037729;28;20050;-69
2021/05/10 00:17:27;;;;;;;9.73;1.50;;;;;;;15.03;68.46;99771.25;5042212;28;20075;-70
2021/05/10 00:19:55;;;;;;;5.30;1.30;;;;;;;15.00;68.58;99782.31;5032036;28;20049;-70
2021/05/10 00:22:22;;;;;;;13.73;1.90;;;;;;;15.01;68.64;99775.53;5040032;28;20405;-72
2021/05/10 00:24:49;;;;;;;7.33;1.83;;;;;;;15.02;68.48;99774.41;5037718;28;20045;-72
2021/05/10 00:27:18;;;;;;;8.10;1.23;;;;;;;15.03;68.45;99770.41;5034815;28;20041;-72
2021/05/10 00:29:44;;;;;;;2.53;1.33;;;;;;;15.04;68.40;99769.25;5033980;28;20042;-73
2021/05/10 00:32:10;;;;;;;10.13;1.77;;;;;;;15.04;68.53;99767.28;5032737;28;20068;-74
2021/05/10 00:34:39;;;;;;;9.27;1.43;;;;;;;15.02;68.63;99769.59;5034377;28;20426;-69
2021/05/10 00:37:08;;;;;;;10.73;1.87;;;;;;;15.00;68.57;99760.66;5037890;28;20061;-73
2021/05/10 00:39:37;;;;;;;7.60;1.53;;;;;;;14.98;68.63;99762.16;5042331;28;20522;-72
2021/05/10 00:42:04;;;;;;;10.83;1.83;;;;;;;14.94;68.73;99762.00;5035927;28;20478;-73
2021/05/10 00:44:33;;;;;;;5.20;1.15;;;;;;;14.91;68.61;99757.84;5035014;28;20100;-71
2021/05/10 00:46:59;;;;;;;12.53;2.03;;;;;;;14.90;68.57;99764.59;5036523;28;20049;-73
2021/05/10 00:49:26;;;;;;;10.03;1.53;;;;;;;14.85;68.46;99761.13;5034865;28;20494;-72
2021/05/10 00:51:52;;;;;;;10.80;2.27;;;;;;;14.76;68.26;99743.44;5041143;28;20507;-73
2021/05/10 00:54:18;;;;;;;8.27;1.40;;;;;;;14.76;68.34;99749.88;5039848;28;20044;-72
2021/05/10 00:56:45;;;;;;;3.07;1.40;;;;;;;14.79;68.29;99762.44;5034934;28;20056;-72
2021/05/10 00:59:13;;;;;;;4.63;1.03;;;;;;;14.77;68.17;99757.16;5040216;28;20405;-70
2021/05/10 01:01:40;;;;;;;3.63;1.20;;;;;;;14.74;68.20;99757.81;5039242;28;20044;-69
2021/05/10 01:04:06;;;;;;;18.80;2.10;;;;;;;14.70;68.50;99756.81;5040998;28;20092;-70
2021/05/10 01:06:33;;;;;;;7.73;1.73;;;;;;;14.69;68.28;99755.16;5039183;28;20390;-70
2021/05/10 01:08:59;;;;;;;9.70;1.73;;;;;;;14.63;68.45;99746.06;5038032;28;20391;-70
2021/05/10 01:11:27;;;;;;;10.03;1.47;;;;;;;14.58;68.74;99736.97;5031092;28;20785;-71
2021/05/10 01:13:54;;;;;;;9.17;1.40;;;;;;;14.60;68.71;99746.72;5037130;28;20402;-70
2021/05/10 01:16:20;;;;;;;10.53;1.80;;;;;;;14.59;68.62;99735.78;5030933;28;20056;-71
2021/05/10 01:18:50;;;;;;;13.50;1.95;;;;;;;14.59;68.52;99738.59;5032871;28;20424;-74
2021/05/10 01:21:18;;;;;;;3.37;1.30;;;;;;;14.53;68.74;99732.31;5036891;28;20064;-73
2021/05/10 01:23:46;;;;;;;7.40;1.77;;;;;;;14.41;68.89;99730.09;5036056;28;20045;-71
2021/05/10 01:26:15;;;;;;;10.07;1.73;;;;;;;14.31;68.81;99715.53;5038636;28;20128;-70
2021/05/10 01:28:41;;;;;;;7.27;1.00;;;;;;;14.34;68.99;99738.19;5039424;28;20045;-71
2021/05/10 01:31:08;;;;;;;3.90;1.10;;;;;;;14.36;68.96;99726.63;5037838;28;20055;-71
2021/05/10 01:33:35;;;;;;;7.43;1.97;;;;;;;14.30;69.11;99727.94;5039488;28;20549;-72
2021/05/10 01:36:02;;;;;;;9.43;1.50;;;;;;;14.30;69.15;99720.34;5039554;28;20412;-72
2021/05/10 01:38:28;;;;;;;5.27;1.37;;;;;;;14.22;69.19;99698.66;5039029;28;20049;-74
2021/05/10 01:41:00;;;;;;;5.43;1.67;;;;;;;14.36;69.11;99719.03;5036149;28;20131;-74
2021/05/10 01:43:29;;;;;;;4.17;1.23;;;;;;;14.37;69.15;99726.28;5035277;28;20052;-73
2021/05/10 01:45:55;;;;;;;11.70;2.40;;;;;;;14.40;69.23;99733.25;5038041;28;20052;-72
2021/05/10 01:48:24;;;;;;;12.73;2.13;;;;;;;14.49;69.04;99722.03;5034242;28;20045;-71
2021/05/10 01:50:50;;;;;;;11.07;2.20;;;;;;;14.56;69.12;99720.41;5031477;28;20056;-74
2021/05/10 01:53:18;;;;;;;9.47;1.23;;;;;;;14.57;69.25;99718.44;5035682;28;20045;-73
2021/05/10 01:55:47;;;;;;;9.97;1.50;;;;;;;14.52;69.11;99707.34;5040923;28;20458;-74
2021/05/10 01:58:13;;;;;;;13.07;3.17;;;;;;;14.50;68.88;99693.66;5039704;28;20049;-73
2021/05/10 02:00:44;;;;;;;6.43;2.77;;;;;;;14.55;69.10;99715.13;5042129;28;20387;-74
2021/05/10 02:03:21;;;;;;;4.40;1.50;;;;;;;14.51;69.04;99717.78;5040234;28;20051;-76
2021/05/10 02:05:50;;;;;;;7.30;1.60;;;;;;;14.43;69.04;99698.91;5045475;28;20418;-75
2021/05/10 02:08:17;;;;;;;7.67;1.90;;;;;;;14.41;69.30;99718.88;5039011;28;20046;-73
2021/05/10 02:10:49;;;;;;;10.37;1.73;;;;;;;14.45;69.21;99710.59;5042642;28;20055;-73
2021/05/10 02:13:23;;;;;;;5.80;1.27;;;;;;;14.47;69.21;99705.50;5035023;28;20041;-70
2021/05/10 02:15:51;;;;;;;12.17;1.90;;;;;;;14.52;68.93;99710.16;5041477;28;20124;-76
2021/05/10 02:18:23;;;;;;;5.43;1.57;;;;;;;14.54;69.16;99697.44;5042763;28;20053;-76
2021/05/10 02:20:49;;;;;;;10.97;2.07;;;;;;;14.49;69.14;99693.94;5035392;28;20049;-76
2021/05/10 02:23:22;;;;;;;14.40;3.90;;;;;;;14.50;69.02;99684.38;5041343;28;20505;-76
2021/05/10 02:25:54;;;;;;;6.40;1.70;;;;;;;14.46;69.13;99681.34;5035994;28;20048;-71
2021/05/10 02:28:23;;;;;;;8.77;1.83;;;;;;;14.49;69.08;99689.13;5037710;28;20053;-75
2021/05/10 02:30:52;;;;;;;8.25;1.90;;;;;;;14.34;69.32;99665.16;5042144;28;20049;-68
2021/05/10 02:33:22;;;;;;;11.33;2.40;;;;;;;14.53;69.12;99678.94;5039814;28;20064;-70
2021/05/10 02:35:50;;;;;;;7.18;1.75;;;;;;;14.51;69.06;99670.00;5045435;28;20046;-70
2021/05/10 02:38:21;;;;;;;5.77;1.37;;;;;;;14.62;69.09;99691.00;5036250;28;20051;-68
2021/05/10 02:40:48;;;;;;;;;;;;;;;14.69;69.15;99682.09;5039121;28;20073;-67
2021/05/10 02:43:19;;;;;;;6.03;1.47;;;;;;;14.69;69.13;99690.50;5038139;28;20004;-69
2021/05/10 02:45:46;;;;;;;8.53;1.50;;;;;;;14.58;69.31;99675.97;5042020;28;20393;-65
2021/05/10 02:48:13;;;;;;;11.53;1.43;;;;;;;14.26;69.83;99680.03;5044776;28;20649;-68
2021/05/10 02:50:41;;;;;;;16.60;2.70;;;;;;;14.21;69.72;99692.22;5041365;28;20049;-68
2021/05/10 02:53:17;;;;;;;;;;;;;;;;;;;;;
2021/05/10 02:55:44;;;;;;;10.07;2.27;;;;;;;14.24;69.65;99696.34;5039767;28;20043;-65
2021/05/10 02:58:10;;;;;;;7.80;1.73;;;;;;;14.12;69.61;99663.31;5036454;28;20064;-66
2021/05/10 03:00:36;;;;;;;6.10;1.80;;;;;;;14.27;69.65;99684.47;5045920;28;20047;-76
2021/05/10 03:03:03;;;;;;;4.60;1.80;;;;;;;14.27;69.44;99675.22;5042292;28;20041;-77
2021/05/10 03:05:29;;;;;;;7.73;1.97;;;;;;;14.18;69.74;99681.63;5040210;28;20048;-73
2021/05/10 03:07:55;;;;;;;7.20;1.67;;;;;;;13.95;70.35;99675.28;5036517;28;20054;-74
2021/05/10 03:10:24;;;;;;;3.60;1.30;;;;;;;13.88;70.62;99686.16;5037061;28;20440;-75
2021/05/10 03:12:52;;;;;;;2.13;1.50;;;;;;;13.76;71.02;99683.13;5036331;28;20052;-77
2021/05/10 03:15:20;;;;;;;6.80;1.60;;;;;;;13.65;71.21;99681.75;5042527;28;20367;-73
2021/05/10 03:17:50;;;;;;;12.23;1.60;;;;;;;13.34;71.03;99615.28;5039162;28;20049;-74
2021/05/10 03:20:19;;;;;;;5.63;1.60;;;;;;;13.61;71.49;99672.34;5037795;28;20422;-71
2021/05/10 03:22:47;;;;;;;5.27;1.67;;;;;;;13.61;71.26;99675.97;5040918;28;20045;-71
2021/05/10 03:25:13;;;;;;;5.83;1.60;;;;;;;13.70;71.14;99690.03;5033874;28;20063;-71
2021/05/10 03:27:40;;;;;;;11.37;1.90;;;;;;;13.72;71.04;99682.13;5036137;28;20049;-70
2021/05/10 03:30:14;;;;;;;6.80;2.37;;;;;;;13.82;70.72;99687.47;5043880;28;20467;-71
2021/05/10 03:32:47;;;;;;;11.47;2.37;;;;;;;13.96;70.47;99682.56;5038584;28;22602;-75
2021/05/10 03:35:15;;;;;;;7.95;2.63;;;;;;;14.04;70.47;99671.69;5042684;28;20048;-75
2021/05/10 03:37:43;;;;;;;7.47;2.03;;;;;;;14.14;70.60;99674.19;5037462;28;20057;-67
2021/05/10 03:40:12;;;;;;;7.63;2.57;;;;;;;14.09;70.68;99663.13;5042916;28;20041;-68
2021/05/10 03:42:42;;;;;;;8.50;2.23;;;;;;;14.26;70.60;99679.19;5038552;28;20142;-70
2021/05/10 03:45:10;;;;;;;6.65;2.17;;;;;;;14.37;70.65;99695.41;5037340;28;20057;-70
2021/05/10 03:47:40;;;;;;;5.53;1.40;;;;;;;14.41;70.50;99685.16;5033558;28;20041;-69
2021/05/10 03:50:08;;;;;;;6.90;1.20;;;;;;;14.35;70.32;99678.03;5038033;28;20516;-72
2021/05/10 03:52:37;;;;;;;4.25;1.20;;;;;;;14.15;69.98;99650.56;5034077;28;20195;-72
2021/05/10 03:55:05;;;;;;;5.10;1.13;;;;;;;14.33;69.71;99687.97;5045879;28;20049;-72
2021/05/10 03:57:32;;;;;;;4.03;0.80;;;;;;;14.23;69.49;99689.91;5039417;28;20045;-70
2021/05/10 03:59:58;;;;;;;1.27;0.77;;;;;;;14.10;69.26;99690.03;5035070;28;20049;-71
2021/05/10 04:02:28;;;;;;;5.15;1.33;;;;;;;13.88;69.47;99688.97;5040191;28;20405;-70
2021/05/10 04:05:12;;;;;;;5.27;1.27;;;;;;;13.80;69.57;99678.53;5040861;28;20056;-69
2021/05/10 04:15:51;;;;;;;5.33;1.53;;;;;;;13.75;70.06;99675.88;5033195;28;20052;-75
2021/05/10 04:18:21;;;;;;;2.87;1.20;;;;;;;13.83;69.93;99677.06;5036357;28;20053;-74
2021/05/10 04:20:49;;;;;;;6.73;1.77;;;;;;;13.76;70.12;99669.09;5038397;28;20460;-72
2021/05/10 04:23:24;;;;;;;5.70;1.23;;;;;;;13.59;70.57;99657.81;5033038;28;20045;-71
2021/05/10 04:25:54;;;;;;;3.93;1.83;;;;;;;13.31;70.76;99620.72;5036996;28;20049;-73
2021/05/10 04:28:22;;;;;;;4.45;1.80;;;;;;;13.62;70.75;99668.38;5035932;28;20045;-76
2021/05/10 04:30:49;;;;;;;1.77;0.77;;;;;;;13.52;71.61;99680.69;5036649;28;20072;-75
2021/05/10 04:33:28;;;;;;;3.10;1.63;;;;;;;13.33;72.60;99686.50;5038189;28;20320;-73
2021/05/10 04:35:55;;;;;;;8.50;1.83;;;;;;;13.20;73.23;99684.59;5043949;28;20342;-77
2021/05/10 04:38:22;;;;;;;10.97;1.70;;;;;;;13.31;72.81;99688.81;5033673;28;20498;-73
2021/05/10 04:40:49;;;;;;;8.17;2.43;;;;;;;13.35;72.69;99677.78;5034756;28;20262;-68
2021/05/10 04:43:19;;;;;;;6.43;1.80;;;;;;;13.37;72.46;99670.72;5037160;28;20045;-72
2021/05/10 04:45:46;;;;;;;8.37;1.70;;;;;;;13.36;72.50;99676.63;5041925;28;20410;-73
2021/05/10 04:48:15;;;;;;;2.23;1.20;;;;;;;13.22;73.04;99665.47;5035616;28;20041;-74
2021/05/10 04:50:41;;;;;;;5.03;1.27;;;;;;;13.18;73.11;99672.88;5035245;28;20042;-74
2021/05/10 04:53:14;;;;;;;3.07;1.43;;;;;;;13.17;72.59;99665.63;5035952;28;20045;-75
2021/05/10 04:55:40;;;;;;;4.17;1.13;;;;;;;13.21;72.83;99667.44;5039832;28;20040;-74
2021/05/10 04:58:07;;;;;;;4.87;1.70;;;;;;;13.34;72.53;99682.59;5037610;28;20128;-73
2021/05/10 05:00:33;;;;;;;7.33;2.53;;;;;;;13.28;72.60;99681.88;5040196;28;20135;-72
2021/05/10 05:03:00;;;;;;;9.97;1.70;;;;;;;13.19;73.27;99683.75;5035837;28;20064;-72
2021/05/10 05:05:29;;;;;;;11.00;1.60;;;;;;;13.12;73.35;99668.53;5035091;28;20044;-72
2021/05/10 05:07:56;;;;;;;6.60;2.23;;;;;;;13.10;73.67;99688.50;5034155;28;20046;-74
2021/05/10 05:10:23;;;;;;;5.77;1.77;;;;;;;13.17;73.52;99677.66;5030629;28;20081;-73
2021/05/10 05:12:52;;;;;;;8.20;2.13;;;;;;;13.09;73.67;99680.38;5040090;28;20052;-74
2021/05/10 05:15:19;;;;;;;7.53;2.77;;;;;;;13.11;73.89;99683.72;5035598;28;20055;-73
2021/05/10 05:17:46;;;;;;;8.10;2.63;;;;;;;13.21;73.36;99689.06;5033053;28;20615;-72
2021/05/10 05:20:13;;;;;;;7.03;2.33;;;;;;;13.30;73.26;99686.31;5032380;28;20051;-67
2021/05/10 05:22:39;;;;;;;6.93;2.80;;;;;;;13.18;73.36;99675.66;5036048;28;20045;-70
2021/05/10 05:25:07;;;;;;;6.37;2.03;;;;;;;13.08;74.15;99699.19;5035125;28;20045;-71
2021/05/10 05:27:34;;;;;;;10.90;2.70;;;;;;;13.05;74.10;99702.63;5034616;28;20405;-69
2021/05/10 05:30:00;;;;;;;7.47;2.47;;;;;;;13.13;73.76;99712.22;5038774;28;20045;-76
2021/05/10 05:32:28;;;;;;;12.73;2.37;;;;;;;13.13;73.76;99690.66;5039037;28;20047;-72
2021/05/10 05:34:55;;;;;;;8.73;2.70;;;;;;;12.92;74.32;99697.88;5039815;28;20124;-72
2021/05/10 05:37:21;;;;;;;5.00;2.30;;;;;;;12.87;74.77;99698.84;5037784;28;20053;-71
2021/05/10 05:39:49;;;;;;;11.43;2.60;;;;;;;12.80;75.06;99704.06;5032920;28;20410;-80
2021/05/10 05:42:15;;;;;;;8.43;2.93;;;;;;;12.78;75.09;99703.53;5033387;28;20600;-73
2021/05/10 05:44:46;;;;;;;11.20;2.87;;;;;;;12.96;74.61;99710.97;5037664;28;20477;-72
2021/05/10 05:47:17;;;;;;;4.13;1.90;;;;;;;13.01;74.40;99719.25;5034328;28;20049;-69
2021/05/10 05:49:44;;;;;;;13.97;3.33;;;;;;;13.05;74.31;99737.06;5036824;28;20053;-70
2021/05/10 05:52:10;;;;;;;13.23;3.30;;;;;;;13.05;74.33;99728.66;5032951;28;20052;-65
2021/05/10 05:54:40;;;;;;;9.73;2.07;;;;;;;12.87;75.32;99721.25;5031643;28;20489;-71
2021/05/10 05:57:06;;;;;;;7.80;2.22;;;;;;;12.67;76.43;99714.16;5039007;28;20045;-66
2021/05/10 05:59:33;;;;;;;9.17;2.53;;;;;;;12.57;76.36;99726.41;5036081;28;20152;-65
2021/05/10 06:01:59;;;;;;;13.70;2.40;;;;;;;12.34;76.33;99677.09;5033980;28;20442;-77
2021/05/10 06:04:29;;;;;;;12.00;2.50;;;;;;;12.51;76.53;99710.88;5037591;28;20041;-74
2021/05/10 06:06:55;;;;;;;6.20;2.08;;;;;;;12.47;76.84;99723.00;5034338;28;20069;-76
2021/05/10 06:09:24;;;;;;;5.97;2.10;;;;;;;12.31;76.83;99700.97;5034574;28;20049;-75
2021/05/10 06:11:53;;;;;;;6.77;1.73;;;;;;;12.32;77.52;99722.22;5035211;28;20045;-75
2021/05/10 06:14:19;;;;;;;2.50;1.60;;;;;;;12.18;78.23;99726.16;5032789;28;20048;-73
2021/05/10 06:16:46;;;;;;;2.20;1.60;;;;;;;11.99;79.02;99723.47;5033408;28;20046;-75
2021/05/10 06:19:13;;;;;;;3.73;2.23;;;;;;;11.98;79.16;99722.63;5032808;28;20044;-74
2021/05/10 06:21:40;;;;;;;9.23;2.10;;;;;;;12.08;79.64;99721.59;5038190;28;20130;-72
2021/05/10 06:24:08;;;;;;;6.83;2.57;;;;;;;12.48;78.44;99717.13;5036889;28;20053;-72
2021/05/10 06:26:36;;;;;;;4.40;1.77;;;;;;;12.65;78.47;99721.22;5039354;28;20393;-74
2021/05/10 06:29:04;;;;;;;8.47;2.23;;;;;;;12.87;77.75;99714.84;5035864;28;20046;-74
2021/05/10 06:31:34;;;;;;;7.90;2.40;;;;;;;12.95;77.58;99714.91;5033791;28;20128;-73
2021/05/10 06:34:02;;;;;;;8.37;1.93;;;;;;;12.90;77.64;99719.81;5028688;28;20041;-73
2021/05/10 06:36:28;;;;;;;3.13;1.53;;;;;;;12.57;77.63;99692.81;5029207;28;20057;-75
2021/05/10 06:38:55;;;;;;;4.00;1.23;;;;;;;12.60;77.55;99710.13;5034216;28;20500;-72
2021/05/10 06:41:24;;;;;;;9.33;3.23;;;;;;;12.57;77.79;99726.41;5035225;28;20045;-75
2021/05/10 06:43:50;;;;;;;1.10;1.03;;;;;;;12.29;77.79;99668.81;5036922;28;20294;-74
2021/05/10 06:46:17;;;;;;;8.10;2.37;;;;;;;12.70;77.54;99718.31;5039010;28;20048;-76
2021/05/10 06:48:46;;;;;;;4.90;1.77;;;;;;;13.09;77.28;99722.44;5043540;28;20049;-73
2021/05/10 06:51:12;;;;;;;5.93;1.43;;;;;;;13.33;76.88;99713.72;5036185;28;20520;-72
2021/05/10 06:53:38;;;;;;;5.37;3.00;;;;;;;13.43;76.38;99708.69;5039880;28;20041;-71
2021/05/10 06:56:05;;;;;;;2.03;1.10;;;;;;;13.81;75.64;99730.72;5041254;28;20136;-73
2021/05/10 06:58:31;;;;;;;1.50;0.73;;;;;;;14.06;75.12;99736.75;5037693;28;20402;-73
2021/05/10 07:00:57;;;;;;;9.43;2.00;;;;;;;14.27;74.42;99734.19;5039316;28;20049;-74
2021/05/10 07:03:24;;;;;;;4.33;2.17;;;;;;;14.30;74.25;99725.13;5034666;28;20057;-73
2021/05/10 07:05:50;;;;;;;4.57;2.10;;;;;;;14.16;74.18;99725.25;5037305;28;20384;-73
2021/05/10 07:08:18;;;;;;;11.43;2.63;;;;;;;13.85;74.45;99719.66;5036442;28;20042;-72
2021/05/10 07:10:50;;;;;;;4.03;1.90;;;;;;;13.78;74.50;99716.47;5035864;28;20045;-73
2021/05/10 07:13:17;;;;;;;2.40;1.27;;;;;;;13.87;74.44;99722.97;5033923;28;20053;-73
2021/05/10 07:15:43;;;;;;;4.87;2.07;;;;;;;13.83;74.58;99722.78;5040137;28;20099;-73
2021/05/10 07:18:12;;;;;;;8.67;2.07;;;;;;;13.69;74.54;99700.44;5033515;28;20057;-73
2021/05/10 07:20:41;;;;;;;2.77;0.90;;;;;;;13.70;74.75;99723.69;5034120;28;20049;-73
2021/05/10 07:23:08;;;;;;;1.80;1.40;;;;;;;13.57;74.91;99714.22;5034713;28;20128;-74
2021/05/10 07:25:43;;;;;;;8.70;1.87;;;;;;;13.39;75.28;99721.69;5039179;28;20041;-74
2021/05/10 07:28:12;;;;;;;4.77;1.77;;;;;;;13.30;75.81;99719.97;5037866;28;20045;-73
2021/05/10 07:30:39;;;;;;;3.30;2.00;;;;;;;13.43;75.18;99725.50;5041845;28;20049;-74
2021/05/10 07:33:06;;;;;;;2.87;1.50;;;;;;;13.40;75.21;99714.97;5032485;28;20045;-74
2021/05/10 07:35:32;;;;;;;10.63;2.40;;;;;;;13.51;75.05;99710.72;5033309;28;20485;-74
2021/05/10 07:37:59;;;;;;;2.43;1.67;;;;;;;13.93;74.67;99730.91;5033315;28;20065;-74
2021/05/10 07:40:26;;;;;;;5.77;2.33;;;;;;;14.33;74.36;99721.66;5033399;28;20052;-74
2021/05/10 07:42:54;;;;;;;4.73;1.83;;;;;;;14.29;74.23;99724.31;5033501;28;20041;-74
2021/05/10 07:45:20;;;;;;;6.17;2.80;;;;;;;14.35;73.92;99722.16;5033317;28;20050;-74
2021/05/10 07:47:54;;;;;;;4.83;2.50;;;;;;;14.35;73.76;99722.97;5033931;28;20045;-74
2021/05/10 07:50:22;;;;;;;7.60;2.27;;;;;;;14.59;73.70;99724.56;5039302;28;20056;-73
2021/05/10 07:52:49;;;;;;;8.57;2.93;;;;;;;15.11;72.88;99722.63;5039851;28;20119;-74
2021/05/10 07:55:17;;;;;;;6.23;1.90;;;;;;;15.49;72.55;99721.09;5041084;28;20482;-75
2021/05/10 07:57:44;;;;;;;2.30;2.03;;;;;;;15.76;71.95;99723.56;5038533;28;20049;-74
2021/05/10 08:00:22;;;;;;;6.30;1.58;;;;;;;15.82;71.38;99718.56;5032780;28;20095;-74
2021/05/10 08:02:52;;;;;;;8.00;2.37;;;;;;;15.97;71.20;99720.00;5033087;28;20049;-74
2021/05/10 08:05:19;;;;;;;9.57;2.53;;;;;;;15.98;70.95;99713.22;5037136;28;20042;-75
2021/05/10 08:07:45;;;;;;;4.47;2.47;;;;;;;16.22;70.30;99721.88;5043383;28;20410;-74
2021/05/10 08:10:12;;;;;;;3.92;1.33;;;;;;;16.39;70.36;99725.78;5033072;28;20436;-75
2021/05/10 08:12:38;;;;;;;4.78;2.13;;;;;;;16.61;70.12;99721.81;5035219;28;20046;-77
2021/05/10 08:15:05;;;;;;;10.18;2.53;;;;;;;16.72;69.53;99717.47;5038141;28;20052;-75
2021/05/10 08:17:34;;;;;;;11.45;2.42;;;;;;;16.71;69.23;99722.25;5033724;28;20048;-75
2021/05/10 08:20:00;;;;;;;10.98;2.10;;;;;;;16.83;69.26;99723.56;5043837;28;20041;-75
2021/05/10 08:22:27;;;;;;;8.82;2.90;;;;;;;16.96;68.94;99726.09;5035883;28;20045;-75
2021/05/10 08:24:54;;;;;;;10.98;2.17;;;;;;;16.86;68.50;99711.59;5042393;28;20049;-73
2021/05/10 08:27:20;;;;;;;6.65;2.00;;;;;;;16.62;68.58;99720.69;5037759;28;20458;-74
2021/05/10 08:29:47;;;;;;;3.28;1.58;;;;;;;16.47;68.60;99727.72;5036423;28;20052;-76
2021/05/10 08:32:13;;;;;;;8.20;1.98;;;;;;;16.67;68.20;99741.03;5033250;28;20041;-75
2021/05/10 08:34:39;;;;;;;5.70;1.48;;;;;;;16.92;68.06;99741.22;5033602;28;20042;-75
2021/05/10 08:37:06;;;;;;;4.95;1.55;;;;;;;17.28;67.61;99743.41;5039054;28;20053;-76
2021/05/10 08:39:32;;;;;;;8.45;1.38;;;;;;;17.43;66.55;99736.31;5035199;28;20045;-79
2021/05/10 08:41:58;;;;;;;5.38;2.05;;;;;;;17.50;66.12;99745.88;5035041;28;20051;-79
2021/05/10 08:44:27;;;;;;;2.97;1.20;;;;;;;17.81;65.59;99733.31;5038292;28;20045;-79
2021/05/10 08:46:54;;;;;;;9.48;2.05;;;;;;;17.85;65.23;99722.97;5034406;28;20045;-78
2021/05/10 08:49:22;;;;;;;6.93;1.63;;;;;;;17.81;64.64;99738.09;5036951;28;20048;-77
2021/05/10 08:51:54;;;;;;;6.97;1.38;;;;;;;17.66;64.69;99723.44;5035069;28;20045;-77
2021/05/10 08:54:26;;;;;;;7.45;1.40;;;;;;;17.82;63.83;99731.31;5040666;28;20044;-77
2021/05/10 08:56:54;;;;;;;8.80;1.88;;;;;;;17.94;63.65;99731.31;5037041;28;20050;-77
2021/05/10 08:59:24;;;;;;;6.20;1.70;;;;;;;17.81;63.95;99718.34;5037471;28;20408;-77
2021/05/10 09:02:03;;;;;;;6.90;1.77;;;;;;;18.08;63.28;99730.97;5038454;28;20044;-77
2021/05/10 09:04:41;;;;;;;5.20;1.52;;;;;;;18.48;63.41;99726.31;5037729;28;20120;-75
2021/05/10 09:07:19;;;;;;;7.75;1.27;;;;;;;18.66;62.25;99721.22;5037305;28;20045;-77
2021/05/10 09:09:59;;;;;;;8.10;1.75;;;;;;;18.85;61.14;99700.03;5033910;28;20049;-77
2021/05/10 09:12:46;;;;;;;7.10;1.73;;;;;;;19.20;60.44;99705.09;5043483;28;20044;-76
2021/05/10 09:15:35;;;;;;;5.22;1.83;;;;;;;19.37;60.06;99687.81;5038838;28;20041;-77
2021/05/10 09:18:02;;;;;;;15.18;1.40;;;;;;;19.24;58.81;99700.38;5031702;28;20049;-77
2021/05/10 09:20:37;;;;;;;4.82;1.30;;;;;;;19.03;58.61;99700.56;5041490;28;20418;-76
2021/05/10 09:23:14;;;;;;;8.73;1.27;;;;;;;18.66;58.53;99709.91;5036949;28;20067;-75
2021/05/10 09:25:45;;;;;;;7.63;1.30;;;;;;;18.13;59.23;99731.59;5034323;28;20120;-76
2021/05/10 09:28:23;;;;;;;2.45;0.80;;;;;;;17.14;58.52;99734.41;5032468;28;20049;-78
2021/05/10 09:30:50;;;;;;;5.07;1.00;;;;;;;15.95;59.98;99750.47;5033089;28;20462;-79
2021/05/10 09:33:21;;;;;;;5.80;1.38;;;;;;;15.12;62.08;99760.84;5038876;28;20072;-80
2021/05/10 09:35:48;;;;;;;11.02;1.20;;;;;;;14.51;63.58;99759.91;5034181;28;20072;-78
2021/05/10 09:38:22;;;;;;;4.80;1.00;;;;;;;14.10;64.32;99754.59;5036799;28;20061;-82
2021/05/10 09:40:54;;;;;;;10.98;1.70;;;;;;;14.07;64.44;99758.06;5043969;28;20049;-80
2021/05/10 09:43:25;;;;;;;5.40;1.20;;;;;;;13.95;64.86;99761.50;5041130;28;20127;-80
2021/05/10 09:45:59;;;;;;;9.77;1.70;;;;;;;13.86;65.13;99758.63;5037010;28;20107;-78
2021/05/10 09:48:37;;;;;;;12.63;1.30;;;;;;;13.74;65.32;99753.63;5040346;28;20516;-79
2021/05/10 09:51:10;;;;;;;8.07;1.27;;;;;;;13.72;65.44;99761.50;5035159;28;20353;-78
2021/05/10 09:53:47;;;;;;;6.07;1.40;;;;;;;13.54;65.77;99731.72;5034752;28;20041;-79
2021/05/10 09:59:03;;;;;;;4.50;1.00;;;;;;;13.58;66.79;99737.50;5033001;28;20060;-76
2021/05/10 10:01:48;;;;;;;6.73;1.20;;;;;;;13.56;66.37;99740.63;5041305;28;20048;-78
2021/05/10 10:04:19;;;;;;;5.10;1.10;;;;;;;13.49;66.60;99737.44;5037061;28;20482;-77
2021/05/10 10:06:47;;;;;;;3.97;1.13;;;;;;;13.54;67.24;99753.28;5034162;28;20045;-77
2021/05/10 10:09:15;;;;;;;8.60;1.77;;;;;;;13.58;67.41;99745.91;5039695;28;20721;-78
2021/05/10 10:11:41;;;;;;;2.57;1.10;;;;;;;13.63;67.35;99749.41;5031417;28;20132;-77
2021/05/10 10:14:09;;;;;;;1.87;1.20;;;;;;;13.20;67.74;99721.06;5032479;28;20128;-77
2021/05/10 10:16:36;;;;;;;6.10;1.53;;;;;;;13.44;68.02;99766.44;5034463;28;20133;-77
2021/05/10 10:19:05;;;;;;;5.90;1.60;;;;;;;13.43;68.12;99759.16;5036633;28;20141;-77
2021/05/10 10:21:36;;;;;;;2.93;1.10;;;;;;;13.48;68.17;99778.69;5035393;28;20051;-77
2021/05/10 10:24:05;;;;;;;8.80;1.50;;;;;;;13.20;68.08;99732.25;5035665;28;20042;-77
2021/05/10 10:26:54;;;;;;;9.60;1.40;;;;;;;13.50;68.07;99769.94;5047198;28;20044;-79
2021/05/10 10:29:23;;;;;;;3.00;1.30;;;;;;;13.79;68.23;99786.31;5038528;28;20077;-79
2021/05/10 10:31:52;;;;;;;3.60;1.13;;;;;;;13.93;68.00;99798.28;5038838;28;20054;-78
2021/05/10 10:34:41;;;;;;;4.30;1.23;;;;;;;13.99;68.34;99805.44;5035058;28;20061;-77
2021/05/10 10:37:16;;;;;;;7.43;1.33;;;;;;;14.04;68.40;99795.19;5039232;28;20057;-76
2021/05/10 10:39:50;;;;;;;5.83;1.50;;;;;;;14.12;68.32;99800.03;5038418;28;20056;-80
2021/05/10 10:42:30;;;;;;;8.57;1.17;;;;;;;14.08;68.72;99790.59;5035886;28;20148;-81
2021/05/10 10:45:03;;;;;;;2.70;0.90;;;;;;;14.08;68.66;99790.59;5045818;28;20057;-82
2021/05/10 10:47:44;;;;;;;5.07;1.30;;;;;;;14.30;68.64;99809.38;5038387;28;20045;-78
2021/05/10 10:50:16;;;;;;;5.43;1.50;;;;;;;14.39;68.66;99815.84;5035963;28;20045;-80
2021/05/10 10:52:57;;;;;;;6.30;1.37;;;;;;;14.44;68.67;99812.91;5037607;28;20422;-79
2021/05/10 10:55:27;;;;;;;4.23;1.50;;;;;;;14.44;68.42;99799.69;5039850;28;20045;-80
2021/05/10 10:58:14;;;;;;;3.10;1.30;;;;;;;14.40;68.48;99807.09;5037781;28;20494;-81
2021/05/10 11:00:55;;;;;;;3.90;1.20;;;;;;;14.48;68.37;99801.84;5037844;28;20045;-81
2021/05/10 11:03:23;;;;;;;5.60;1.30;;;;;;;14.67;68.13;99794.84;5037404;28;20520;-80
2021/05/10 11:05:49;;;;;;;4.97;1.53;;;;;;;14.83;68.28;99802.78;5041928;28;20136;-81
2021/05/10 11:08:16;;;;;;;3.43;1.20;;;;;;;14.88;68.05;99811.91;5042479;28;20068;-80
2021/05/10 11:10:58;;;;;;;3.53;1.13;;;;;;;14.84;68.17;99799.66;5035715;28;20048;-82
2021/05/10 11:13:30;;;;;;;6.57;1.40;;;;;;;14.93;67.96;99806.13;5036712;28;20046;-79
2021/05/10 11:16:07;;;;;;;5.47;1.30;;;;;;;14.90;67.66;99808.75;5039275;28;20057;-81
2021/05/10 11:18:53;;;;;;;4.43;1.73;;;;;;;14.85;67.66;99803.31;5036677;28;20482;-80
2021/05/10 11:21:23;;;;;;;7.00;1.50;;;;;;;14.79;67.90;99805.44;5037992;28;20041;-81
2021/05/10 11:23:57;;;;;;;4.25;1.67;;;;;;;14.77;68.21;99796.53;5039288;28;20045;-81
2021/05/10 11:26:45;;;;;;;7.33;1.67;;;;;;;14.82;67.93;99807.59;5040099;28;20045;-81
2021/05/10 11:29:26;;;;;;;7.03;1.47;;;;;;;14.78;68.03;99815.03;5037161;28;20041;-81
2021/05/10 11:32:15;;;;;;;3.37;1.30;;;;;;;14.73;67.87;99809.53;5036292;28;20055;-81
2021/05/10 11:34:41;;;;;;;4.07;1.53;;;;;;;14.77;67.92;99819.00;5043707;28;20060;-80
2021/05/10 11:37:08;;;;;;;2.80;1.53;;;;;;;15.00;68.31;99813.25;5032611;28;20059;-80
2021/05/10 11:39:37;;;;;;;4.83;1.90;;;;;;;15.56;68.29;99805.84;5041342;28;20398;-80
2021/05/10 11:42:05;;;;;;;3.80;1.60;;;;;;;16.02;67.57;99804.28;5035500;28;20064;-80
2021/05/10 11:44:42;;;;;;;7.47;1.55;;;;;;;16.23;67.56;99795.94;5043912;28;20562;-80
2021/05/10 11:47:28;;;;;;;4.35;2.10;;;;;;;16.52;66.66;99803.63;5039814;28;20065;-80
2021/05/10 11:49:55;;;;;;;4.22;1.52;;;;;;;16.92;65.80;99806.06;5046100;28;20049;-80
2021/05/10 11:52:23;;;;;;;4.80;1.85;;;;;;;17.05;65.23;99799.34;5035033;28;20126;-80
2021/05/10 11:54:54;;;;;;;7.28;2.17;;;;;;;17.31;65.28;99792.72;5035053;28;20497;-81